sensor_id;sensor_type;location;lat;lon;timestamp;temperature;humidity
16964;DHT22;8598;50.508;10.436;2022-11-09T00:00:40;7.80;99.90
16964;DHT22;8598;50.508;10.436;2022-11-09T00:03:07;7.90;99.90
16964;DHT22;8598;50.508;10.436;2022-11-09T00:05:34;8.00;99.90
16964;DHT22;8598;50.508;10.436;2022-11-09T00:08:04;8.00;99.90
16964;DHT22;8598;50.508;10.436;2022-11-09T00:10:31;8.00;99.90
16964;DHT22;8598;50.508;10.436;2022-11-09T00:12:59;8.10;99.90
16964;DHT22;8598;50.508;10.436;2022-11-09T00:15:26;8.10;99.90
16964;DHT22;8598;50.508;10.436;2022-11-09T00:17:53;8.10;99.90
16964;DHT22;8598;50.508;10.436;2022-11-09T00:20:20;8.00;99.90
16964;DHT22;8598;50.508;10.436;2022-11-09T00:22:47;8.10;99.90
16964;DHT22;8598;50.508;10.436;2022-11-09T00:25:14;8.10;99.90
16964;DHT22;8598;50.508;10.436;2022-11-09T00:27:41;8.00;99.90
16964;DHT22;8598;50.508;10.436;2022-11-09T00:30:10;8.00;99.90
16964;DHT22;8598;50.508;10.436;2022-11-09T00:32:37;8.00;99.90
16964;DHT22;8598;50.508;10.436;2022-11-09T00:35:04;8.10;99.90
16964;DHT22;8598;50.508;10.436;2022-11-09T00:37:31;8.20;99.90
16964;DHT22;8598;50.508;10.436;2022-11-09T00:39:58;8.10;99.90
16964;DHT22;8598;50.508;10.436;2022-11-09T00:42:24;8.10;99.90
16964;DHT22;8598;50.508;10.436;2022-11-09T00:44:51;8.10;99.90
16964;DHT22;8598;50.508;10.436;2022-11-09T00:47:19;8.00;99.90
16964;DHT22;8598;50.508;10.436;2022-11-09T00:49:46;8.00;99.90
16964;DHT22;8598;50.508;10.436;2022-11-09T00:52:13;8.00;99.90
16964;DHT22;8598;50.508;10.436;2022-11-09T00:54:39;8.00;99.90
16964;DHT22;8598;50.508;10.436;2022-11-09T00:57:06;8.00;99.90
16964;DHT22;8598;50.508;10.436;2022-11-09T00:59:33;7.90;99.90
16964;DHT22;8598;50.508;10.436;2022-11-09T01:01:59;8.00;99.90
16964;DHT22;8598;50.508;10.436;2022-11-09T01:04:27;7.90;99.90
16964;DHT22;8598;50.508;10.436;2022-11-09T01:06:54;7.80;99.90
16964;DHT22;8598;50.508;10.436;2022-11-09T01:09:21;7.80;99.90
16964;DHT22;8598;50.508;10.436;2022-11-09T01:11:48;7.90;99.90
16964;DHT22;8598;50.508;10.436;2022-11-09T01:14:14;7.80;99.90
16964;DHT22;8598;50.508;10.436;2022-11-09T01:16:41;7.90;99.90
16964;DHT22;8598;50.508;10.436;2022-11-09T01:19:08;7.80;99.90
16964;DHT22;8598;50.508;10.436;2022-11-09T01:21:36;7.70;99.90
16964;DHT22;8598;50.508;10.436;2022-11-09T01:24:03;7.60;99.90
16964;DHT22;8598;50.508;10.436;2022-11-09T01:26:30;7.50;99.90
16964;DHT22;8598;50.508;10.436;2022-11-09T01:28:58;7.40;99.90
16964;DHT22;8598;50.508;10.436;2022-11-09T01:31:25;7.40;99.90
16964;DHT22;8598;50.508;10.436;2022-11-09T01:33:52;7.30;99.90
16964;DHT22;8598;50.508;10.436;2022-11-09T01:36:20;7.40;99.90
16964;DHT22;8598;50.508;10.436;2022-11-09T01:38:49;7.40;99.90
16964;DHT22;8598;50.508;10.436;2022-11-09T01:41:18;7.40;99.90
16964;DHT22;8598;50.508;10.436;2022-11-09T01:44:03;7.50;99.90
16964;DHT22;8598;50.508;10.436;2022-11-09T01:46:34;7.50;99.90
16964;DHT22;8598;50.508;10.436;2022-11-09T01:49:04;7.60;99.90
16964;DHT22;8598;50.508;10.436;2022-11-09T01:51:38;7.70;99.90
16964;DHT22;8598;50.508;10.436;2022-11-09T01:54:10;7.70;99.90
16964;DHT22;8598;50.508;10.436;2022-11-09T01:56:38;7.80;99.90
16964;DHT22;8598;50.508;10.436;2022-11-09T01:59:11;7.90;99.90
16964;DHT22;8598;50.508;10.436;2022-11-09T02:01:42;7.80;99.90
16964;DHT22;8598;50.508;10.436;2022-11-09T02:04:12;7.80;99.90
16964;DHT22;8598;50.508;10.436;2022-11-09T02:06:39;7.90;99.90
16964;DHT22;8598;50.508;10.436;2022-11-09T02:09:13;7.80;99.90
16964;DHT22;8598;50.508;10.436;2022-11-09T02:11:41;8.60;99.90
16964;DHT22;8598;50.508;10.436;2022-11-09T02:14:08;7.90;99.90
16964;DHT22;8598;50.508;10.436;2022-11-09T02:16:36;7.90;99.90
16964;DHT22;8598;50.508;10.436;2022-11-09T02:19:04;7.90;99.90
16964;DHT22;8598;50.508;10.436;2022-11-09T02:21:32;7.90;99.90
16964;DHT22;8598;50.508;10.436;2022-11-09T02:23:59;8.00;99.90
16964;DHT22;8598;50.508;10.436;2022-11-09T02:26:29;8.00;99.90
16964;DHT22;8598;50.508;10.436;2022-11-09T02:28:57;8.00;99.90
16964;DHT22;8598;50.508;10.436;2022-11-09T02:31:31;8.10;99.90
16964;DHT22;8598;50.508;10.436;2022-11-09T02:34:02;8.10;99.90
16964;DHT22;8598;50.508;10.436;2022-11-09T02:36:29;8.10;99.90
16964;DHT22;8598;50.508;10.436;2022-11-09T02:38:58;8.10;99.90
16964;DHT22;8598;50.508;10.436;2022-11-09T02:41:25;8.10;99.90
16964;DHT22;8598;50.508;10.436;2022-11-09T02:43:52;8.20;99.90
16964;DHT22;8598;50.508;10.436;2022-11-09T02:46:22;8.20;99.90
16964;DHT22;8598;50.508;10.436;2022-11-09T02:48:49;8.30;99.90
16964;DHT22;8598;50.508;10.436;2022-11-09T02:51:16;8.20;99.90
16964;DHT22;8598;50.508;10.436;2022-11-09T02:53:43;8.20;99.90
16964;DHT22;8598;50.508;10.436;2022-11-09T02:56:11;8.30;99.90
16964;DHT22;8598;50.508;10.436;2022-11-09T02:58:38;8.30;99.90
16964;DHT22;8598;50.508;10.436;2022-11-09T03:01:05;8.30;99.90
16964;DHT22;8598;50.508;10.436;2022-11-09T03:03:32;8.30;99.90
16964;DHT22;8598;50.508;10.436;2022-11-09T03:05:58;8.30;99.90
16964;DHT22;8598;50.508;10.436;2022-11-09T03:08:25;8.30;99.90
16964;DHT22;8598;50.508;10.436;2022-11-09T03:10:52;8.30;99.90
16964;DHT22;8598;50.508;10.436;2022-11-09T03:13:20;8.30;99.90
16964;DHT22;8598;50.508;10.436;2022-11-09T03:15:46;8.30;99.90
16964;DHT22;8598;50.508;10.436;2022-11-09T03:18:13;8.30;99.90
16964;DHT22;8598;50.508;10.436;2022-11-09T03:20:40;8.30;99.90
16964;DHT22;8598;50.508;10.436;2022-11-09T03:23:07;8.20;99.90
16964;DHT22;8598;50.508;10.436;2022-11-09T03:25:35;8.30;99.90
16964;DHT22;8598;50.508;10.436;2022-11-09T03:28:04;8.20;99.90
16964;DHT22;8598;50.508;10.436;2022-11-09T03:30:33;8.20;99.90
16964;DHT22;8598;50.508;10.436;2022-11-09T03:33:01;8.20;99.90
16964;DHT22;8598;50.508;10.436;2022-11-09T03:35:28;8.20;99.90
16964;DHT22;8598;50.508;10.436;2022-11-09T03:37:55;8.20;99.90
16964;DHT22;8598;50.508;10.436;2022-11-09T03:40:22;8.20;99.90
16964;DHT22;8598;50.508;10.436;2022-11-09T03:42:49;8.20;99.90
16964;DHT22;8598;50.508;10.436;2022-11-09T03:45:16;8.10;99.90
16964;DHT22;8598;50.508;10.436;2022-11-09T03:47:45;8.10;99.90
16964;DHT22;8598;50.508;10.436;2022-11-09T03:50:14;8.10;99.90
16964;DHT22;8598;50.508;10.436;2022-11-09T03:52:43;8.10;99.90
16964;DHT22;8598;50.508;10.436;2022-11-09T03:55:11;8.10;99.90
16964;DHT22;8598;50.508;10.436;2022-11-09T03:57:38;8.10;99.90
16964;DHT22;8598;50.508;10.436;2022-11-09T04:00:06;8.20;99.90
16964;DHT22;8598;50.508;10.436;2022-11-09T04:02:34;8.10;99.90
16964;DHT22;8598;50.508;10.436;2022-11-09T04:05:02;8.10;99.90
16964;DHT22;8598;50.508;10.436;2022-11-09T04:07:29;8.10;99.90
16964;DHT22;8598;50.508;10.436;2022-11-09T04:09:55;8.20;99.90
16964;DHT22;8598;50.508;10.436;2022-11-09T04:12:22;8.20;99.90
16964;DHT22;8598;50.508;10.436;2022-11-09T04:14:49;8.20;99.90
16964;DHT22;8598;50.508;10.436;2022-11-09T04:17:16;8.20;99.90
16964;DHT22;8598;50.508;10.436;2022-11-09T04:19:43;8.20;99.90
16964;DHT22;8598;50.508;10.436;2022-11-09T04:22:11;8.20;99.90
16964;DHT22;8598;50.508;10.436;2022-11-09T04:24:37;8.30;99.90
16964;DHT22;8598;50.508;10.436;2022-11-09T04:27:05;8.30;99.90
16964;DHT22;8598;50.508;10.436;2022-11-09T04:29:31;8.30;99.90
16964;DHT22;8598;50.508;10.436;2022-11-09T04:31:58;8.20;99.90
16964;DHT22;8598;50.508;10.436;2022-11-09T04:34:25;8.30;99.90
16964;DHT22;8598;50.508;10.436;2022-11-09T04:36:52;8.20;99.90
16964;DHT22;8598;50.508;10.436;2022-11-09T04:39:20;8.20;99.90
16964;DHT22;8598;50.508;10.436;2022-11-09T04:41:46;8.30;99.90
16964;DHT22;8598;50.508;10.436;2022-11-09T04:44:13;8.30;99.90
16964;DHT22;8598;50.508;10.436;2022-11-09T04:46:40;8.30;99.90
16964;DHT22;8598;50.508;10.436;2022-11-09T04:49:07;8.50;99.90
16964;DHT22;8598;50.508;10.436;2022-11-09T04:51:34;8.20;99.90
16964;DHT22;8598;50.508;10.436;2022-11-09T04:54:00;8.30;99.90
16964;DHT22;8598;50.508;10.436;2022-11-09T04:56:28;8.20;99.90
16964;DHT22;8598;50.508;10.436;2022-11-09T04:58:55;8.20;99.90
16964;DHT22;8598;50.508;10.436;2022-11-09T05:01:22;8.30;99.90
16964;DHT22;8598;50.508;10.436;2022-11-09T05:03:49;8.20;99.90
16964;DHT22;8598;50.508;10.436;2022-11-09T05:06:15;8.40;99.90
16964;DHT22;8598;50.508;10.436;2022-11-09T05:09:03;8.40;99.90
16964;DHT22;8598;50.508;10.436;2022-11-09T05:11:33;8.50;99.90
16964;DHT22;8598;50.508;10.436;2022-11-09T05:14:00;8.60;99.90
16964;DHT22;8598;50.508;10.436;2022-11-09T05:16:27;8.60;99.90
16964;DHT22;8598;50.508;10.436;2022-11-09T05:18:54;8.70;99.90
16964;DHT22;8598;50.508;10.436;2022-11-09T05:21:21;8.70;99.90
16964;DHT22;8598;50.508;10.436;2022-11-09T05:23:47;8.70;99.90
16964;DHT22;8598;50.508;10.436;2022-11-09T05:26:34;8.70;99.90
16964;DHT22;8598;50.508;10.436;2022-11-09T05:29:03;8.80;99.90
16964;DHT22;8598;50.508;10.436;2022-11-09T05:31:30;8.90;99.90
16964;DHT22;8598;50.508;10.436;2022-11-09T05:33:57;8.90;99.90
16964;DHT22;8598;50.508;10.436;2022-11-09T05:36:25;9.00;99.90
16964;DHT22;8598;50.508;10.436;2022-11-09T05:38:52;9.10;99.90
16964;DHT22;8598;50.508;10.436;2022-11-09T05:41:19;9.20;99.90
16964;DHT22;8598;50.508;10.436;2022-11-09T05:43:47;9.20;99.90
16964;DHT22;8598;50.508;10.436;2022-11-09T05:46:15;9.20;99.90
16964;DHT22;8598;50.508;10.436;2022-11-09T05:48:43;9.20;99.90
16964;DHT22;8598;50.508;10.436;2022-11-09T05:51:13;9.20;99.90
16964;DHT22;8598;50.508;10.436;2022-11-09T05:53:40;9.20;99.90
16964;DHT22;8598;50.508;10.436;2022-11-09T05:56:08;9.20;99.90
16964;DHT22;8598;50.508;10.436;2022-11-09T05:58:36;9.20;99.90
16964;DHT22;8598;50.508;10.436;2022-11-09T06:01:06;9.20;99.90
16964;DHT22;8598;50.508;10.436;2022-11-09T06:03:33;9.30;99.90
16964;DHT22;8598;50.508;10.436;2022-11-09T06:06:00;9.30;99.90
16964;DHT22;8598;50.508;10.436;2022-11-09T06:08:27;9.30;99.90
16964;DHT22;8598;50.508;10.436;2022-11-09T06:10:57;9.30;99.90
16964;DHT22;8598;50.508;10.436;2022-11-09T06:13:24;9.40;99.90
16964;DHT22;8598;50.508;10.436;2022-11-09T06:15:52;9.30;99.90
16964;DHT22;8598;50.508;10.436;2022-11-09T06:18:21;9.40;99.90
16964;DHT22;8598;50.508;10.436;2022-11-09T06:20:50;9.40;99.90
16964;DHT22;8598;50.508;10.436;2022-11-09T06:23:17;9.50;99.90
16964;DHT22;8598;50.508;10.436;2022-11-09T06:25:44;9.50;99.90
16964;DHT22;8598;50.508;10.436;2022-11-09T06:28:10;9.50;99.90
16964;DHT22;8598;50.508;10.436;2022-11-09T06:30:37;9.50;99.90
16964;DHT22;8598;50.508;10.436;2022-11-09T06:33:04;9.50;99.90
16964;DHT22;8598;50.508;10.436;2022-11-09T06:35:32;9.50;99.90
16964;DHT22;8598;50.508;10.436;2022-11-09T06:37:59;9.60;99.90
16964;DHT22;8598;50.508;10.436;2022-11-09T06:40:26;9.50;99.90
16964;DHT22;8598;50.508;10.436;2022-11-09T06:42:56;9.50;99.90
16964;DHT22;8598;50.508;10.436;2022-11-09T06:45:23;9.50;99.90
16964;DHT22;8598;50.508;10.436;2022-11-09T06:47:53;9.50;99.90
16964;DHT22;8598;50.508;10.436;2022-11-09T06:50:20;9.50;99.90
16964;DHT22;8598;50.508;10.436;2022-11-09T06:52:48;9.60;99.90
16964;DHT22;8598;50.508;10.436;2022-11-09T06:55:15;9.50;99.90
16964;DHT22;8598;50.508;10.436;2022-11-09T06:57:42;9.50;99.90
16964;DHT22;8598;50.508;10.436;2022-11-09T07:00:09;9.60;99.90
16964;DHT22;8598;50.508;10.436;2022-11-09T07:02:36;9.60;99.90
16964;DHT22;8598;50.508;10.436;2022-11-09T07:05:04;9.60;99.90
16964;DHT22;8598;50.508;10.436;2022-11-09T07:07:30;9.60;99.90
16964;DHT22;8598;50.508;10.436;2022-11-09T07:09:59;9.60;99.90
16964;DHT22;8598;50.508;10.436;2022-11-09T07:12:25;9.60;99.90
16964;DHT22;8598;50.508;10.436;2022-11-09T07:14:52;9.60;99.90
16964;DHT22;8598;50.508;10.436;2022-11-09T07:17:19;9.60;99.90
16964;DHT22;8598;50.508;10.436;2022-11-09T07:19:46;9.60;99.90
16964;DHT22;8598;50.508;10.436;2022-11-09T07:22:12;9.30;99.90
16964;DHT22;8598;50.508;10.436;2022-11-09T07:24:39;9.60;99.90
16964;DHT22;8598;50.508;10.436;2022-11-09T07:27:07;9.60;99.90
16964;DHT22;8598;50.508;10.436;2022-11-09T07:29:36;9.60;99.90
16964;DHT22;8598;50.508;10.436;2022-11-09T07:32:03;9.60;99.90
16964;DHT22;8598;50.508;10.436;2022-11-09T07:34:29;9.70;99.90
16964;DHT22;8598;50.508;10.436;2022-11-09T07:36:56;9.70;99.90
16964;DHT22;8598;50.508;10.436;2022-11-09T07:39:23;9.70;99.90
16964;DHT22;8598;50.508;10.436;2022-11-09T07:41:50;9.80;99.90
16964;DHT22;8598;50.508;10.436;2022-11-09T07:44:18;9.80;99.90
16964;DHT22;8598;50.508;10.436;2022-11-09T07:46:45;9.80;99.90
16964;DHT22;8598;50.508;10.436;2022-11-09T07:49:13;9.90;99.90
16964;DHT22;8598;50.508;10.436;2022-11-09T07:51:39;9.90;99.90
16964;DHT22;8598;50.508;10.436;2022-11-09T07:54:07;9.90;99.90
16964;DHT22;8598;50.508;10.436;2022-11-09T07:56:34;9.90;99.90
16964;DHT22;8598;50.508;10.436;2022-11-09T07:59:01;10.00;99.90
16964;DHT22;8598;50.508;10.436;2022-11-09T08:01:29;10.00;99.90
16964;DHT22;8598;50.508;10.436;2022-11-09T08:03:56;10.00;99.90
16964;DHT22;8598;50.508;10.436;2022-11-09T08:06:23;10.10;99.90
16964;DHT22;8598;50.508;10.436;2022-11-09T08:08:52;10.10;99.90
16964;DHT22;8598;50.508;10.436;2022-11-09T08:11:19;10.10;99.90
16964;DHT22;8598;50.508;10.436;2022-11-09T08:13:46;10.20;99.90
16964;DHT22;8598;50.508;10.436;2022-11-09T08:16:13;10.30;99.90
16964;DHT22;8598;50.508;10.436;2022-11-09T08:18:41;10.40;99.90
16964;DHT22;8598;50.508;10.436;2022-11-09T08:21:08;10.40;99.90
16964;DHT22;8598;50.508;10.436;2022-11-09T08:23:34;10.40;99.90
16964;DHT22;8598;50.508;10.436;2022-11-09T08:26:02;10.40;99.90
16964;DHT22;8598;50.508;10.436;2022-11-09T08:28:29;10.40;99.90
16964;DHT22;8598;50.508;10.436;2022-11-09T08:30:58;10.50;99.90
16964;DHT22;8598;50.508;10.436;2022-11-09T08:33:26;10.50;99.90
16964;DHT22;8598;50.508;10.436;2022-11-09T08:35:54;10.50;99.90
16964;DHT22;8598;50.508;10.436;2022-11-09T08:38:21;10.50;99.90
16964;DHT22;8598;50.508;10.436;2022-11-09T08:40:48;10.50;99.90
16964;DHT22;8598;50.508;10.436;2022-11-09T08:43:15;10.50;99.90
16964;DHT22;8598;50.508;10.436;2022-11-09T08:45:41;10.60;99.90
16964;DHT22;8598;50.508;10.436;2022-11-09T08:48:09;10.60;99.90
16964;DHT22;8598;50.508;10.436;2022-11-09T08:50:37;10.70;99.90
16964;DHT22;8598;50.508;10.436;2022-11-09T08:53:05;10.70;99.90
16964;DHT22;8598;50.508;10.436;2022-11-09T08:55:32;10.70;99.90
16964;DHT22;8598;50.508;10.436;2022-11-09T08:58:00;10.80;99.90
16964;DHT22;8598;50.508;10.436;2022-11-09T09:00:27;10.70;99.90
16964;DHT22;8598;50.508;10.436;2022-11-09T09:02:54;10.70;99.90
16964;DHT22;8598;50.508;10.436;2022-11-09T09:05:21;10.70;99.90
16964;DHT22;8598;50.508;10.436;2022-11-09T09:07:48;10.80;99.90
16964;DHT22;8598;50.508;10.436;2022-11-09T09:10:16;10.80;99.90
16964;DHT22;8598;50.508;10.436;2022-11-09T09:12:43;10.90;99.90
16964;DHT22;8598;50.508;10.436;2022-11-09T09:15:10;10.90;99.90
16964;DHT22;8598;50.508;10.436;2022-11-09T09:17:36;11.00;99.90
16964;DHT22;8598;50.508;10.436;2022-11-09T09:20:05;11.10;99.90
16964;DHT22;8598;50.508;10.436;2022-11-09T09:22:32;11.10;99.90
16964;DHT22;8598;50.508;10.436;2022-11-09T09:24:59;11.20;99.90
16964;DHT22;8598;50.508;10.436;2022-11-09T09:27:27;11.20;99.90
16964;DHT22;8598;50.508;10.436;2022-11-09T09:29:55;11.20;99.90
16964;DHT22;8598;50.508;10.436;2022-11-09T09:32:21;11.20;99.90
16964;DHT22;8598;50.508;10.436;2022-11-09T09:34:48;11.30;99.90
16964;DHT22;8598;50.508;10.436;2022-11-09T09:37:15;11.20;99.90
16964;DHT22;8598;50.508;10.436;2022-11-09T09:39:42;11.30;99.90
16964;DHT22;8598;50.508;10.436;2022-11-09T09:42:13;11.40;99.90
16964;DHT22;8598;50.508;10.436;2022-11-09T09:44:48;11.30;99.90
16964;DHT22;8598;50.508;10.436;2022-11-09T09:47:21;11.40;99.90
16964;DHT22;8598;50.508;10.436;2022-11-09T09:49:54;11.50;99.90
16964;DHT22;8598;50.508;10.436;2022-11-09T09:52:27;11.50;99.90
16964;DHT22;8598;50.508;10.436;2022-11-09T09:55:00;11.60;99.90
16964;DHT22;8598;50.508;10.436;2022-11-09T09:57:29;11.60;99.90
16964;DHT22;8598;50.508;10.436;2022-11-09T10:00:00;11.70;99.90
16964;DHT22;8598;50.508;10.436;2022-11-09T10:02:28;11.80;99.90
16964;DHT22;8598;50.508;10.436;2022-11-09T10:04:58;11.90;99.90
16964;DHT22;8598;50.508;10.436;2022-11-09T10:07:28;12.00;99.90
16964;DHT22;8598;50.508;10.436;2022-11-09T10:10:08;12.00;99.90
16964;DHT22;8598;50.508;10.436;2022-11-09T10:12:45;12.00;99.90
16964;DHT22;8598;50.508;10.436;2022-11-09T10:15:22;12.10;99.90
16964;DHT22;8598;50.508;10.436;2022-11-09T10:18:01;12.10;99.90
16964;DHT22;8598;50.508;10.436;2022-11-09T10:20:42;12.20;99.90
16964;DHT22;8598;50.508;10.436;2022-11-09T10:23:23;12.30;99.90
16964;DHT22;8598;50.508;10.436;2022-11-09T10:26:01;12.30;99.90
16964;DHT22;8598;50.508;10.436;2022-11-09T10:28:28;12.30;99.90
16964;DHT22;8598;50.508;10.436;2022-11-09T10:30:57;12.30;99.90
16964;DHT22;8598;50.508;10.436;2022-11-09T10:33:27;12.30;99.90
16964;DHT22;8598;50.508;10.436;2022-11-09T10:35:59;12.30;99.90
16964;DHT22;8598;50.508;10.436;2022-11-09T10:38:30;12.30;99.90
16964;DHT22;8598;50.508;10.436;2022-11-09T10:41:01;12.30;99.90
16964;DHT22;8598;50.508;10.436;2022-11-09T10:43:29;12.40;99.90
16964;DHT22;8598;50.508;10.436;2022-11-09T10:46:01;12.50;99.90
16964;DHT22;8598;50.508;10.436;2022-11-09T10:48:32;12.50;99.90
16964;DHT22;8598;50.508;10.436;2022-11-09T10:50:59;12.60;99.90
16964;DHT22;8598;50.508;10.436;2022-11-09T10:53:27;12.80;99.90
16964;DHT22;8598;50.508;10.436;2022-11-09T10:55:56;13.00;99.90
16964;DHT22;8598;50.508;10.436;2022-11-09T10:58:27;13.10;99.90
16964;DHT22;8598;50.508;10.436;2022-11-09T11:01:00;13.10;99.90
16964;DHT22;8598;50.508;10.436;2022-11-09T11:03:28;13.20;99.90
16964;DHT22;8598;50.508;10.436;2022-11-09T11:05:56;13.20;99.90
16964;DHT22;8598;50.508;10.436;2022-11-09T11:08:40;13.30;99.90
16964;DHT22;8598;50.508;10.436;2022-11-09T11:11:21;13.20;99.90
16964;DHT22;8598;50.508;10.436;2022-11-09T11:13:50;13.10;99.90
16964;DHT22;8598;50.508;10.436;2022-11-09T11:16:27;12.90;99.90
16964;DHT22;8598;50.508;10.436;2022-11-09T11:18:55;12.90;99.90
16964;DHT22;8598;50.508;10.436;2022-11-09T11:21:23;13.00;99.90
16964;DHT22;8598;50.508;10.436;2022-11-09T11:24:18;13.10;99.90
16964;DHT22;8598;50.508;10.436;2022-11-09T11:26:50;13.10;99.90
16964;DHT22;8598;50.508;10.436;2022-11-09T11:29:41;13.10;99.90
16964;DHT22;8598;50.508;10.436;2022-11-09T11:32:12;13.20;99.90
16964;DHT22;8598;50.508;10.436;2022-11-09T11:34:40;13.20;99.90
16964;DHT22;8598;50.508;10.436;2022-11-09T11:37:26;13.20;99.90
16964;DHT22;8598;50.508;10.436;2022-11-09T11:40:00;13.40;99.90
16964;DHT22;8598;50.508;10.436;2022-11-09T11:45:27;13.20;99.90
16964;DHT22;8598;50.508;10.436;2022-11-09T11:48:27;13.20;99.90
16964;DHT22;8598;50.508;10.436;2022-11-09T11:50:59;13.10;99.90
16964;DHT22;8598;50.508;10.436;2022-11-09T11:53:40;13.10;99.90
16964;DHT22;8598;50.508;10.436;2022-11-09T11:56:19;13.00;99.90
16964;DHT22;8598;50.508;10.436;2022-11-09T11:58:58;13.00;99.90
16964;DHT22;8598;50.508;10.436;2022-11-09T12:01:36;13.00;99.90
16964;DHT22;8598;50.508;10.436;2022-11-09T12:04:15;13.10;99.90
16964;DHT22;8598;50.508;10.436;2022-11-09T12:06:53;13.10;99.90
16964;DHT22;8598;50.508;10.436;2022-11-09T12:09:43;13.10;99.90
16964;DHT22;8598;50.508;10.436;2022-11-09T12:12:16;13.20;99.90
16964;DHT22;8598;50.508;10.436;2022-11-09T12:14:58;13.40;99.90
16964;DHT22;8598;50.508;10.436;2022-11-09T12:17:34;13.70;99.90
16964;DHT22;8598;50.508;10.436;2022-11-09T12:20:21;14.10;99.90
16964;DHT22;8598;50.508;10.436;2022-11-09T12:23:04;14.00;99.90
16964;DHT22;8598;50.508;10.436;2022-11-09T12:25:38;14.00;99.90
16964;DHT22;8598;50.508;10.436;2022-11-09T12:28:19;14.00;99.90
16964;DHT22;8598;50.508;10.436;2022-11-09T12:30:58;14.20;99.90
16964;DHT22;8598;50.508;10.436;2022-11-09T12:33:41;14.20;99.90
16964;DHT22;8598;50.508;10.436;2022-11-09T12:36:14;14.10;99.90
16964;DHT22;8598;50.508;10.436;2022-11-09T12:38:52;14.10;99.90
16964;DHT22;8598;50.508;10.436;2022-11-09T12:41:21;14.30;99.90
16964;DHT22;8598;50.508;10.436;2022-11-09T12:43:54;14.30;99.90
16964;DHT22;8598;50.508;10.436;2022-11-09T12:46:28;14.30;99.90
16964;DHT22;8598;50.508;10.436;2022-11-09T12:48:59;14.10;99.90
16964;DHT22;8598;50.508;10.436;2022-11-09T12:51:28;14.00;99.90
16964;DHT22;8598;50.508;10.436;2022-11-09T12:53:56;14.00;99.90
16964;DHT22;8598;50.508;10.436;2022-11-09T12:56:26;13.90;99.90
16964;DHT22;8598;50.508;10.436;2022-11-09T12:59:18;13.70;99.90
16964;DHT22;8598;50.508;10.436;2022-11-09T13:01:49;13.70;99.90
16964;DHT22;8598;50.508;10.436;2022-11-09T13:04:19;13.60;99.90
16964;DHT22;8598;50.508;10.436;2022-11-09T13:07:16;13.50;99.90
16964;DHT22;8598;50.508;10.436;2022-11-09T13:09:52;13.40;99.90
16964;DHT22;8598;50.508;10.436;2022-11-09T13:12:29;13.50;99.90
16964;DHT22;8598;50.508;10.436;2022-11-09T13:15:11;13.30;99.90
16964;DHT22;8598;50.508;10.436;2022-11-09T13:18:00;13.50;99.90
16964;DHT22;8598;50.508;10.436;2022-11-09T13:20:46;13.40;99.90
16964;DHT22;8598;50.508;10.436;2022-11-09T13:23:32;13.50;99.90
16964;DHT22;8598;50.508;10.436;2022-11-09T13:26:00;13.40;99.90
16964;DHT22;8598;50.508;10.436;2022-11-09T13:28:48;13.40;99.90
16964;DHT22;8598;50.508;10.436;2022-11-09T13:34:44;13.30;99.90
16964;DHT22;8598;50.508;10.436;2022-11-09T13:37:36;13.40;99.90
16964;DHT22;8598;50.508;10.436;2022-11-09T13:40:37;13.30;99.90
16964;DHT22;8598;50.508;10.436;2022-11-09T13:43:12;13.20;99.90
16964;DHT22;8598;50.508;10.436;2022-11-09T13:45:42;13.20;99.90
16964;DHT22;8598;50.508;10.436;2022-11-09T13:48:24;13.10;99.90
16964;DHT22;8598;50.508;10.436;2022-11-09T13:50:54;13.10;99.90
16964;DHT22;8598;50.508;10.436;2022-11-09T13:53:27;13.10;99.90
16964;DHT22;8598;50.508;10.436;2022-11-09T13:55:54;13.10;99.90
16964;DHT22;8598;50.508;10.436;2022-11-09T13:58:26;13.10;99.90
16964;DHT22;8598;50.508;10.436;2022-11-09T14:00:54;13.20;99.90
16964;DHT22;8598;50.508;10.436;2022-11-09T14:03:23;13.20;99.90
16964;DHT22;8598;50.508;10.436;2022-11-09T14:05:51;13.20;99.90
16964;DHT22;8598;50.508;10.436;2022-11-09T14:08:22;13.30;99.90
16964;DHT22;8598;50.508;10.436;2022-11-09T14:11:20;13.30;99.90
16964;DHT22;8598;50.508;10.436;2022-11-09T14:14:08;13.30;99.90
16964;DHT22;8598;50.508;10.436;2022-11-09T14:16:46;13.30;99.90
16964;DHT22;8598;50.508;10.436;2022-11-09T14:19:23;13.30;99.90
16964;DHT22;8598;50.508;10.436;2022-11-09T14:21:52;13.20;99.90
16964;DHT22;8598;50.508;10.436;2022-11-09T14:24:22;13.20;99.90
16964;DHT22;8598;50.508;10.436;2022-11-09T14:27:12;13.20;99.90
16964;DHT22;8598;50.508;10.436;2022-11-09T14:29:48;13.20;99.90
16964;DHT22;8598;50.508;10.436;2022-11-09T14:32:25;13.20;99.90
16964;DHT22;8598;50.508;10.436;2022-11-09T14:34:53;13.20;99.90
16964;DHT22;8598;50.508;10.436;2022-11-09T14:37:34;13.10;99.90
16964;DHT22;8598;50.508;10.436;2022-11-09T14:40:04;13.10;99.90
16964;DHT22;8598;50.508;10.436;2022-11-09T14:42:30;13.10;99.90
16964;DHT22;8598;50.508;10.436;2022-11-09T14:44:57;13.10;99.90
16964;DHT22;8598;50.508;10.436;2022-11-09T14:47:27;13.00;99.90
16964;DHT22;8598;50.508;10.436;2022-11-09T14:49:55;13.00;99.90
16964;DHT22;8598;50.508;10.436;2022-11-09T14:52:26;12.90;99.90
16964;DHT22;8598;50.508;10.436;2022-11-09T14:54:53;13.00;99.90
16964;DHT22;8598;50.508;10.436;2022-11-09T14:57:22;12.90;99.90
16964;DHT22;8598;50.508;10.436;2022-11-09T14:59:49;12.90;99.90
16964;DHT22;8598;50.508;10.436;2022-11-09T15:02:17;12.90;99.90
16964;DHT22;8598;50.508;10.436;2022-11-09T15:04:55;12.80;99.90
16964;DHT22;8598;50.508;10.436;2022-11-09T15:07:25;12.80;99.90
16964;DHT22;8598;50.508;10.436;2022-11-09T15:09:55;12.70;99.90
16964;DHT22;8598;50.508;10.436;2022-11-09T15:12:25;12.70;99.90
16964;DHT22;8598;50.508;10.436;2022-11-09T15:14:56;12.60;99.90
16964;DHT22;8598;50.508;10.436;2022-11-09T15:17:28;12.60;99.90
16964;DHT22;8598;50.508;10.436;2022-11-09T15:19:57;12.50;99.90
16964;DHT22;8598;50.508;10.436;2022-11-09T15:22:47;12.50;99.90
16964;DHT22;8598;50.508;10.436;2022-11-09T15:25:21;12.60;99.90
16964;DHT22;8598;50.508;10.436;2022-11-09T15:28:01;12.50;99.90
16964;DHT22;8598;50.508;10.436;2022-11-09T15:30:31;12.50;99.90
16964;DHT22;8598;50.508;10.436;2022-11-09T15:32:59;12.50;99.90
16964;DHT22;8598;50.508;10.436;2022-11-09T15:35:26;12.40;99.90
16964;DHT22;8598;50.508;10.436;2022-11-09T15:37:53;12.40;99.90
16964;DHT22;8598;50.508;10.436;2022-11-09T15:40:22;12.30;99.90
16964;DHT22;8598;50.508;10.436;2022-11-09T15:42:49;12.40;99.90
16964;DHT22;8598;50.508;10.436;2022-11-09T15:45:19;12.30;99.90
16964;DHT22;8598;50.508;10.436;2022-11-09T15:47:51;12.30;99.90
16964;DHT22;8598;50.508;10.436;2022-11-09T15:50:20;12.20;99.90
16964;DHT22;8598;50.508;10.436;2022-11-09T15:52:48;12.20;99.90
16964;DHT22;8598;50.508;10.436;2022-11-09T15:55:16;12.20;99.90
16964;DHT22;8598;50.508;10.436;2022-11-09T15:57:44;12.20;99.90
16964;DHT22;8598;50.508;10.436;2022-11-09T16:00:13;12.10;99.90
16964;DHT22;8598;50.508;10.436;2022-11-09T16:02:41;12.20;99.90